Time;durP1;ratioP1;P1;durP2;ratioP2;P2;SDS_P1;SDS_P2;PMS_P1;PMS_P2;Temp;Humidity;BMP_temperature;BMP_pressure;BME280_temperature;BME280_humidity;BME280_pressure;Samples;Min_cycle;Max_cycle;Signal;HPM_P1;HPM_P2
2022/04/22 00:02:03;;;;;;;15.47;12.57;;;8.60;99.90;;;;;;5011616;28;20240;-81
2022/04/22 00:04:29;;;;;;;14.30;11.70;;;8.50;99.90;;;;;;5029344;28;21210;-82
2022/04/22 00:06:55;;;;;;;15.43;11.80;;;8.50;99.90;;;;;;5021948;28;20187;-81
2022/04/22 00:09:20;;;;;;;16.00;12.10;;;8.50;99.90;;;;;;5028365;28;20194;-81
2022/04/22 00:11:46;;;;;;;14.87;12.47;;;8.40;99.90;;;;;;5028582;28;20274;-81
2022/04/22 00:14:11;;;;;;;18.37;12.33;;;8.30;99.90;;;;;;5046295;28;20268;-82
2022/04/22 00:16:37;;;;;;;15.43;12.27;;;8.30;99.90;;;;;;5029104;28;20214;-82
2022/04/22 00:19:03;;;;;;;16.53;12.37;;;8.20;99.90;;;;;;5046380;28;20213;-81
2022/04/22 00:21:28;;;;;;;15.07;11.70;;;8.10;99.90;;;;;;5028752;28;20203;-81
2022/04/22 00:23:54;;;;;;;14.03;11.80;;;8.10;99.90;;;;;;5046221;28;20583;-82
2022/04/22 00:26:20;;;;;;;16.37;12.23;;;8.10;99.90;;;;;;5021662;28;20191;-83
2022/04/22 00:28:46;;;;;;;16.30;12.47;;;8.10;99.90;;;;;;5033071;28;20229;-83
2022/04/22 00:31:13;;;;;;;15.23;12.60;;;8.10;99.90;;;;;;5015184;28;20211;-83
2022/04/22 00:33:38;;;;;;;16.17;13.37;;;8.10;99.90;;;;;;5016014;28;20253;-83
2022/04/22 00:36:04;;;;;;;15.13;13.03;;;8.20;99.90;;;;;;5015576;28;20202;-83
2022/04/22 00:38:30;;;;;;;13.50;11.80;;;8.30;99.90;;;;;;5014403;28;20179;-83
2022/04/22 00:40:56;;;;;;;14.03;11.47;;;8.30;99.90;;;;;;5014419;28;20203;-84
2022/04/22 00:43:26;;;;;;;15.30;12.50;;;8.10;99.90;;;;;;5032330;28;20186;-83
2022/04/22 00:45:53;;;;;;;15.30;11.63;;;7.90;99.90;;;;;;5014783;28;20190;-83
2022/04/22 00:48:19;;;;;;;12.57;10.63;;;7.80;99.90;;;;;;5031529;28;20187;-83
2022/04/22 00:50:45;;;;;;;13.53;11.50;;;7.80;99.90;;;;;;5031719;28;20215;-83
2022/04/22 00:53:12;;;;;;;15.20;12.20;;;7.60;99.90;;;;;;5014288;28;20276;-83
2022/04/22 00:55:40;;;;;;;14.83;11.70;;;7.50;99.90;;;;;;5030413;28;20264;-83
2022/04/22 00:58:07;;;;;;;13.13;10.90;;;7.50;99.90;;;;;;5029980;28;20348;-83
2022/04/22 01:00:33;;;;;;;13.50;11.27;;;7.40;99.90;;;;;;5013134;28;20595;-83
2022/04/22 01:02:59;;;;;;;14.63;11.70;;;7.40;99.90;;;;;;5030255;28;20273;-83
2022/04/22 01:10:55;;;;;;;16.20;11.70;;;7.30;99.90;;;;;;5034544;28;20249;-83
2022/04/22 01:13:21;;;;;;;13.30;11.23;;;7.30;99.90;;;;;;5017217;28;20211;-82
2022/04/22 01:15:47;;;;;;;15.43;12.00;;;7.20;99.90;;;;;;5034633;28;20197;-82
2022/04/22 01:18:14;;;;;;;15.60;12.17;;;7.20;99.90;;;;;;5016882;28;20999;-82
2022/04/22 01:20:40;;;;;;;15.33;11.70;;;7.10;99.90;;;;;;5034129;28;20918;-82
2022/04/22 01:23:05;;;;;;;13.77;11.20;;;7.10;99.90;;;;;;5017093;28;20305;-82
2022/04/22 01:25:31;;;;;;;16.50;12.03;;;7.00;99.90;;;;;;5034868;28;20179;-83
2022/04/22 01:27:57;;;;;;;14.37;12.23;;;7.00;99.90;;;;;;5016328;28;20187;-82
2022/04/22 01:30:24;;;;;;;15.80;11.87;;;7.00;99.90;;;;;;5016190;28;20217;-81
2022/04/22 01:32:51;;;;;;;16.67;12.60;;;7.00;99.90;;;;;;5033640;28;20194;-83
2022/04/22 01:35:21;;;;;;;19.20;14.03;;;7.10;99.90;;;;;;5034054;28;20240;-83
2022/04/22 01:37:47;;;;;;;18.60;13.57;;;7.40;99.90;;;;;;5015435;28;20293;-81
2022/04/22 01:40:13;;;;;;;18.07;13.80;;;7.40;99.90;;;;;;5015994;28;20236;-83
2022/04/22 01:42:39;;;;;;;18.87;13.60;;;7.40;99.90;;;;;;5032314;28;20190;-82
2022/04/22 01:45:06;;;;;;;16.80;12.67;;;7.50;99.90;;;;;;5031051;28;20234;-83
2022/04/22 01:47:32;;;;;;;17.97;13.13;;;7.40;99.90;;;;;;5015938;28;20229;-82
2022/04/22 01:49:58;;;;;;;15.07;12.17;;;7.50;99.90;;;;;;5014494;28;20211;-83
2022/04/22 01:52:24;;;;;;;16.73;12.13;;;7.40;99.90;;;;;;5033836;28;20685;-83
2022/04/22 01:54:51;;;;;;;16.17;11.73;;;7.30;99.90;;;;;;5032197;28;20228;-82
2022/04/22 01:57:17;;;;;;;17.00;12.20;;;7.30;99.90;;;;;;5033355;28;20225;-82
2022/04/22 01:59:44;;;;;;;15.37;12.03;;;7.50;99.90;;;;;;5015384;28;20301;-82
2022/04/22 02:02:10;;;;;;;15.67;11.57;;;7.70;99.90;;;;;;5015353;28;20935;-83
2022/04/22 02:04:36;;;;;;;15.27;12.57;;;7.80;99.90;;;;;;5031078;28;20233;-83
2022/04/22 02:07:02;;;;;;;17.63;12.80;;;7.80;99.90;;;;;;5015018;28;20187;-81
2022/04/22 02:09:28;;;;;;;17.30;13.70;;;7.90;99.90;;;;;;5032903;28;20179;-82
2022/04/22 02:11:54;;;;;;;18.20;12.90;;;7.80;99.90;;;;;;5014738;28;20222;-83
2022/04/22 02:14:20;;;;;;;17.57;12.87;;;7.80;99.90;;;;;;5032371;28;20688;-81
2022/04/22 02:16:46;;;;;;;17.47;12.77;;;7.80;99.90;;;;;;5013377;28;20179;-82
2022/04/22 02:19:11;;;;;;;16.67;13.00;;;7.80;99.90;;;;;;5013163;28;20181;-82
2022/04/22 02:21:37;;;;;;;16.23;12.40;;;7.90;99.90;;;;;;5027025;28;20278;-81
2022/04/22 02:24:03;;;;;;;17.63;13.23;;;7.90;99.90;;;;;;5012767;28;20198;-83
2022/04/22 02:26:29;;;;;;;15.17;12.93;;;8.10;99.90;;;;;;5031769;28;20202;-83
2022/04/22 02:28:54;;;;;;;16.37;12.20;;;8.20;99.90;;;;;;5013641;28;20187;-82
2022/04/22 02:31:20;;;;;;;15.57;12.73;;;8.30;99.90;;;;;;5013304;28;20218;-82
2022/04/22 02:33:45;;;;;;;15.63;12.17;;;8.20;99.90;;;;;;5030225;28;20225;-82
2022/04/22 02:36:11;;;;;;;16.00;12.50;;;8.20;99.90;;;;;;5030153;28;20737;-81
2022/04/22 02:38:38;;;;;;;15.50;11.80;;;8.20;99.90;;;;;;5012846;28;20668;-81
2022/04/22 02:46:33;;;;;;;13.10;10.77;;;8.20;99.90;;;;;;5027365;28;20193;-81
2022/04/22 02:49:00;;;;;;;13.33;10.80;;;8.20;99.90;;;;;;5009089;28;20195;-80
2022/04/22 02:51:26;;;;;;;15.47;11.50;;;8.20;99.90;;;;;;5026272;28;20213;-81
2022/04/22 02:53:53;;;;;;;13.33;11.23;;;8.20;99.90;;;;;;5025250;28;20586;-81
2022/04/22 02:56:19;;;;;;;13.53;11.27;;;8.30;99.90;;;;;;5024869;28;20596;-81
2022/04/22 02:58:46;;;;;;;13.87;10.63;;;8.40;99.90;;;;;;5024108;28;20178;-81
2022/04/22 03:01:14;;;;;;;14.87;11.50;;;8.40;99.90;;;;;;5026250;28;20313;-81
2022/04/22 03:03:41;;;;;;;14.30;11.20;;;8.40;99.90;;;;;;5008256;28;20195;-80
2022/04/22 03:06:06;;;;;;;14.40;11.60;;;8.50;99.90;;;;;;5025951;28;20229;-81
2022/04/22 03:08:32;;;;;;;13.30;11.33;;;8.40;99.90;;;;;;5025905;28;20211;-81
2022/04/22 03:10:58;;;;;;;15.27;12.03;;;8.40;99.90;;;;;;5008351;28;20297;-80
2022/04/22 03:13:23;;;;;;;14.17;11.20;;;8.40;99.90;;;;;;5008901;28;20213;-81
2022/04/22 03:15:49;;;;;;;13.07;11.20;;;8.40;99.90;;;;;;5008416;28;20208;-80
2022/04/22 03:18:15;;;;;;;13.77;11.07;;;8.40;99.90;;;;;;5008006;28;20221;-81
2022/04/22 03:20:40;;;;;;;15.23;11.47;;;8.40;99.90;;;;;;5025497;28;20205;-81
2022/04/22 03:23:06;;;;;;;13.70;11.10;;;8.40;99.90;;;;;;5007537;28;20187;-81
2022/04/22 03:25:31;;;;;;;13.57;11.10;;;8.40;99.90;;;;;;5007642;28;20233;-82
2022/04/22 03:27:57;;;;;;;13.20;10.50;;;8.40;99.90;;;;;;5007620;28;20262;-83
2022/04/22 03:30:22;;;;;;;13.00;11.20;;;8.40;99.90;;;;;;5012363;28;20203;-81
2022/04/22 03:32:48;;;;;;;14.57;11.70;;;8.30;99.90;;;;;;5012074;28;20178;-82
2022/04/22 03:35:14;;;;;;;13.87;11.20;;;8.40;99.90;;;;;;5012527;28;20211;-83
2022/04/22 03:37:41;;;;;;;12.50;10.70;;;8.40;99.90;;;;;;5012486;28;20194;-82
2022/04/22 03:40:09;;;;;;;16.27;11.80;;;8.30;99.90;;;;;;5012097;28;20635;-81
2022/04/22 03:42:36;;;;;;;17.10;11.87;;;8.30;99.90;;;;;;5012213;28;20658;-81
2022/04/22 03:45:03;;;;;;;15.33;11.63;;;8.40;99.90;;;;;;5012775;28;20205;-83
2022/04/22 03:47:28;;;;;;;13.40;10.73;;;8.30;99.90;;;;;;5030357;28;20179;-83
2022/04/22 03:49:54;;;;;;;14.67;11.37;;;8.40;99.90;;;;;;5012734;28;20234;-81
2022/04/22 03:52:19;;;;;;;11.93;9.67;;;8.40;99.90;;;;;;5011595;28;20177;-81
2022/04/22 03:54:45;;;;;;;11.27;10.13;;;8.50;99.90;;;;;;5012473;28;20229;-82
2022/04/22 03:59:55;;;;;;;13.93;9.77;;;8.50;99.90;;;;;;5030754;28;20298;-82
2022/04/22 04:02:20;;;;;;;10.40;9.00;;;8.50;99.90;;;;;;5011569;28;20294;-81
2022/04/22 04:04:48;;;;;;;11.47;9.47;;;8.50;99.90;;;;;;5030161;28;20190;-81
2022/04/22 04:07:14;;;;;;;12.03;8.73;;;8.40;99.90;;;;;;5030187;28;20193;-82
2022/04/22 04:17:52;;;;;;;5.37;4.50;;;8.30;99.90;;;;;;5029324;28;20229;-82
2022/04/22 04:23:14;;;;;;;8.10;4.20;;;8.30;99.90;;;;;;5029514;28;20703;-83
2022/04/22 04:25:40;;;;;;;4.73;3.70;;;8.20;99.90;;;;;;5010657;28;20206;-83
2022/04/22 04:28:09;;;;;;;5.73;3.47;;;8.20;99.90;;;;;;5028562;28;20183;-81
2022/04/22 04:30:36;;;;;;;5.20;3.50;;;8.20;99.90;;;;;;5026916;28;20219;-81
2022/04/22 04:33:02;;;;;;;3.43;3.13;;;8.10;99.90;;;;;;5026749;28;20179;-82
2022/04/22 04:35:28;;;;;;;5.00;4.17;;;8.10;99.90;;;;;;5009692;28;21104;-82
2022/04/22 04:37:53;;;;;;;5.07;2.93;;;8.00;99.90;;;;;;5010392;28;20191;-82
2022/04/22 04:40:19;;;;;;;4.23;3.63;;;8.10;99.90;;;;;;5027905;28;20215;-81
2022/04/22 04:42:45;;;;;;;3.87;3.20;;;8.00;99.90;;;;;;5029502;28;20194;-81
2022/04/22 04:45:10;;;;;;;4.03;3.17;;;8.20;99.90;;;;;;5032704;28;20256;-81
2022/04/22 04:47:42;;;;;;;4.00;3.33;;;8.20;99.90;;;;;;5031079;28;20190;-81
2022/04/22 04:50:09;;;;;;;5.27;4.00;;;8.30;99.90;;;;;;5012745;28;20730;-81
2022/04/22 04:52:36;;;;;;;4.33;3.70;;;8.40;99.90;;;;;;5012553;28;20193;-82
2022/04/22 04:55:06;;;;;;;4.87;3.73;;;8.30;99.90;;;;;;5013961;28;20728;-81
2022/04/22 04:57:31;;;;;;;3.47;3.17;;;8.30;99.90;;;;;;5030045;28;20189;-81
2022/04/22 04:59:57;;;;;;;3.77;3.37;;;8.40;99.90;;;;;;5013185;28;20207;-80
2022/04/22 05:02:23;;;;;;;3.37;3.07;;;8.50;99.90;;;;;;5031491;28;20194;-82
2022/04/22 05:04:48;;;;;;;3.60;3.30;;;8.50;99.90;;;;;;5029675;28;20221;-81
2022/04/22 05:07:14;;;;;;;4.33;3.70;;;8.40;99.90;;;;;;5013282;28;20183;-81
2022/04/22 05:09:40;;;;;;;3.70;3.40;;;8.40;99.90;;;;;;5030549;28;20660;-82
2022/04/22 05:12:06;;;;;;;4.10;3.23;;;8.30;99.90;;;;;;5013410;28;20688;-82
2022/04/22 05:14:31;;;;;;;4.50;3.60;;;8.30;99.90;;;;;;5012324;28;20225;-83
2022/04/22 05:16:57;;;;;;;5.23;3.67;;;8.40;99.90;;;;;;5013169;28;20541;-81
2022/04/22 05:19:23;;;;;;;4.43;3.43;;;8.40;99.90;;;;;;5012627;28;20215;-81
2022/04/22 05:21:49;;;;;;;4.50;3.03;;;8.40;99.90;;;;;;5012970;28;20214;-81
2022/04/22 05:24:15;;;;;;;4.53;3.13;;;8.60;99.90;;;;;;5012763;28;20660;-81
2022/04/22 05:26:41;;;;;;;5.23;3.43;;;8.60;99.90;;;;;;5029809;28;20317;-83
2022/04/22 05:32:36;;;;;;;4.17;3.00;;;8.50;99.90;;;;;;5012719;28;20273;-81
2022/04/22 05:34:37;;;;;;;3.97;2.77;;;8.70;99.90;;;;;;5030307;28;20225;-81
2022/04/22 05:37:02;;;;;;;4.13;2.70;;;8.90;99.90;;;;;;5028720;28;20199;-81
2022/04/22 05:39:28;;;;;;;3.07;2.73;;;9.00;99.90;;;;;;5011354;28;20567;-81
2022/04/22 05:41:54;;;;;;;3.63;2.63;;;9.10;99.90;;;;;;5029631;28;20207;-82
2022/04/22 05:44:19;;;;;;;4.33;3.60;;;9.10;99.90;;;;;;5010840;28;20261;-81
2022/04/22 05:46:45;;;;;;;4.33;2.90;;;9.20;99.90;;;;;;5028203;28;20190;-81
2022/04/22 05:49:11;;;;;;;3.90;3.00;;;9.30;99.90;;;;;;5029074;28;20187;-81
2022/04/22 05:51:36;;;;;;;3.10;2.67;;;9.40;99.90;;;;;;5010966;28;20261;-80
2022/04/22 05:54:02;;;;;;;3.53;2.80;;;9.40;99.90;;;;;;5028549;28;20249;-82
2022/04/22 05:56:29;;;;;;;5.37;3.10;;;9.30;99.90;;;;;;5010467;28;20207;-81
2022/04/22 05:58:55;;;;;;;5.03;3.00;;;9.30;99.90;;;;;;5011926;28;20546;-81
2022/04/22 06:01:22;;;;;;;4.07;3.30;;;9.40;99.90;;;;;;5029461;28;20195;-81
2022/04/22 06:03:48;;;;;;;4.13;3.10;;;9.50;99.90;;;;;;5011729;28;20663;-82
2022/04/22 06:06:14;;;;;;;4.27;2.93;;;9.40;99.90;;;;;;5011114;28;20194;-80
2022/04/22 06:11:24;;;;;;;7.43;3.20;;;9.50;99.90;;;;;;5026269;28;20245;-81
2022/04/22 06:13:49;;;;;;;5.37;3.37;;;9.60;99.90;;;;;;5025786;28;20218;-81
2022/04/22 06:16:15;;;;;;;4.43;3.90;;;9.60;99.90;;;;;;5024717;28;20179;-81
2022/04/22 06:18:41;;;;;;;4.30;3.30;;;9.60;99.90;;;;;;5008710;28;20259;-81
2022/04/22 06:21:06;;;;;;;4.03;3.13;;;9.70;99.90;;;;;;5008556;28;20230;-83
2022/04/22 06:23:34;;;;;;;4.67;3.23;;;9.50;99.90;;;;;;5026506;28;20203;-81
2022/04/22 06:25:59;;;;;;;4.07;2.80;;;9.60;99.90;;;;;;5025615;28;20197;-81
2022/04/22 06:28:25;;;;;;;4.17;3.03;;;9.60;99.90;;;;;;5007694;28;20183;-81
2022/04/22 06:30:51;;;;;;;5.77;3.27;;;9.70;99.90;;;;;;5025595;28;20217;-81
2022/04/22 06:33:18;;;;;;;4.20;3.30;;;9.80;99.90;;;;;;5007810;28;20268;-81
2022/04/22 06:35:44;;;;;;;4.63;3.30;;;10.00;99.90;;;;;;5007346;28;20961;-81
2022/04/22 06:38:14;;;;;;;3.40;3.03;;;10.00;99.90;;;;;;5007600;28;20183;-81
2022/04/22 06:46:09;;;;;;;5.30;3.77;;;10.30;99.90;;;;;;5024880;28;20604;-82
2022/04/22 06:48:35;;;;;;;4.03;3.27;;;10.40;99.90;;;;;;5007485;28;20178;-81
2022/04/22 06:51:06;;;;;;;5.37;3.10;;;10.50;99.90;;;;;;5007080;28;20251;-81
2022/04/22 06:53:34;;;;;;;4.93;3.60;;;10.50;99.90;;;;;;5006709;28;20272;-81
2022/04/22 06:56:02;;;;;;;5.13;2.80;;;10.70;99.90;;;;;;5006635;28;20570;-82
2022/04/22 06:58:30;;;;;;;4.77;3.00;;;10.90;99.90;;;;;;5006032;28;20183;-82
2022/04/22 07:00:56;;;;;;;4.17;2.90;;;11.00;99.90;;;;;;5006274;28;20260;-81
2022/04/22 07:03:22;;;;;;;4.70;2.90;;;11.00;99.90;;;;;;5024869;28;20214;-82
2022/04/22 07:05:49;;;;;;;3.53;2.87;;;11.20;99.90;;;;;;5010171;28;20191;-77
2022/04/22 07:08:17;;;;;;;4.95;3.05;;;11.20;99.90;;;;;;5013591;28;20585;-79
2022/04/22 07:10:52;;;;;;;3.70;3.27;;;11.20;99.90;;;;;;5008751;28;20229;-81
2022/04/22 07:13:18;;;;;;;4.40;3.60;;;11.20;99.90;;;;;;5007485;28;20786;-82
2022/04/22 07:15:49;;;;;;;6.20;3.33;;;11.00;99.90;;;;;;5024666;28;20222;-81
2022/04/22 07:18:15;;;;;;;4.10;3.10;;;10.90;99.90;;;;;;5006784;28;20229;-81
2022/04/22 07:20:41;;;;;;;4.97;3.50;;;11.10;99.90;;;;;;5025790;28;20203;-81
2022/04/22 07:23:08;;;;;;;3.95;3.20;;;11.20;99.90;;;;;;5007913;28;20702;-81
2022/04/22 07:25:35;;;;;;;5.03;3.57;;;11.20;99.90;;;;;;5007258;28;20632;-81
2022/04/22 07:28:02;;;;;;;5.47;3.17;;;11.20;99.90;;;;;;5025980;28;20175;-82
2022/04/22 07:30:28;;;;;;;6.70;3.60;;;11.30;99.90;;;;;;5008186;28;20195;-81
2022/04/22 07:32:53;;;;;;;5.25;3.40;;;11.40;99.90;;;;;;5026354;28;20187;-81
2022/04/22 07:35:21;;;;;;;4.90;3.67;;;11.40;99.90;;;;;;5007660;28;20273;-81
2022/04/22 07:37:53;;;;;;;4.32;3.17;;;11.40;99.90;;;;;;5007685;28;20203;-81
2022/04/22 07:40:20;;;;;;;8.23;4.13;;;11.50;99.90;;;;;;5007344;28;20202;-82
2022/04/22 07:48:23;;;;;;;4.35;3.60;;;11.30;99.90;;;;;;5025611;28;20373;-81
2022/04/22 07:50:50;;;;;;;6.77;4.00;;;11.10;99.90;;;;;;5025593;28;20257;-81
2022/04/22 07:53:16;;;;;;;6.03;4.00;;;11.10;99.90;;;;;;5025665;28;20581;-81
2022/04/22 07:55:42;;;;;;;7.27;4.70;;;11.30;99.90;;;;;;5006834;28;20277;-81
2022/04/22 07:58:10;;;;;;;4.80;4.07;;;11.20;99.90;;;;;;5025734;28;20262;-81
2022/04/22 08:00:38;;;;;;;5.40;4.10;;;11.30;99.90;;;;;;5006869;28;20202;-81
2022/04/22 08:03:04;;;;;;;7.03;4.25;;;11.20;99.90;;;;;;5006935;28;20198;-81
2022/04/22 08:05:30;;;;;;;6.70;4.45;;;11.20;99.90;;;;;;5007359;28;20199;-81
2022/04/22 08:07:56;;;;;;;6.20;4.60;;;11.10;99.90;;;;;;5007867;28;20395;-81
2022/04/22 08:10:22;;;;;;;5.77;4.73;;;11.30;99.90;;;;;;5007269;28;20288;-83
2022/04/22 08:12:48;;;;;;;6.50;4.63;;;11.00;99.90;;;;;;5007147;28;20226;-81
2022/04/22 08:15:13;;;;;;;8.17;5.60;;;11.20;99.90;;;;;;5006328;28;20253;-81
2022/04/22 08:17:39;;;;;;;8.10;5.20;;;11.00;99.90;;;;;;5006836;28;20190;-81
2022/04/22 08:20:05;;;;;;;7.60;4.90;;;10.90;99.90;;;;;;5010472;28;20803;-81
2022/04/22 08:22:32;;;;;;;8.20;5.27;;;10.90;99.90;;;;;;5009158;28;20217;-81
2022/04/22 08:24:57;;;;;;;7.20;5.00;;;11.20;99.90;;;;;;5010254;28;20499;-81
2022/04/22 08:27:24;;;;;;;8.33;5.07;;;11.50;99.90;;;;;;5010632;28;20605;-82
2022/04/22 08:29:50;;;;;;;7.30;5.10;;;11.50;99.90;;;;;;5028229;28;20191;-81
2022/04/22 08:32:15;;;;;;;6.90;5.07;;;11.40;99.90;;;;;;5010359;28;20602;-81
2022/04/22 08:34:41;;;;;;;7.37;5.60;;;11.20;99.90;;;;;;5010531;28;20597;-82
2022/04/22 08:37:06;;;;;;;8.27;6.10;;;11.30;99.90;;;;;;5010371;28;20332;-81
2022/04/22 08:39:32;;;;;;;6.47;5.10;;;11.20;99.90;;;;;;5010437;28;20261;-82
2022/04/22 08:42:01;;;;;;;6.97;5.00;;;11.60;99.90;;;;;;5027881;28;20360;-81
2022/04/22 08:44:28;;;;;;;7.90;5.35;;;11.90;99.90;;;;;;5028402;28;20183;-81
2022/04/22 08:52:24;;;;;;;6.47;5.23;;;11.90;99.90;;;;;;5028253;28;20177;-81
2022/04/22 08:54:52;;;;;;;6.97;5.57;;;11.80;99.90;;;;;;5009927;28;20260;-81
2022/04/22 08:57:22;;;;;;;8.63;6.00;;;11.50;99.90;;;;;;5027362;28;20527;-82
2022/04/22 08:59:49;;;;;;;7.70;6.15;;;11.40;99.90;;;;;;5027505;28;20501;-81
2022/04/22 09:02:19;;;;;;;10.40;6.90;;;11.10;99.90;;;;;;5009331;28;20249;-81
2022/04/22 09:04:46;;;;;;;8.40;7.13;;;11.10;99.90;;;;;;5009134;28;20534;-82
2022/04/22 09:07:18;;;;;;;10.73;7.07;;;11.00;99.90;;;;;;5027349;28;20186;-81
2022/04/22 09:09:49;;;;;;;8.03;6.23;;;11.10;99.90;;;;;;5009803;28;20197;-82
2022/04/22 09:12:17;;;;;;;7.60;6.20;;;11.40;99.90;;;;;;5026195;28;20183;-81
2022/04/22 09:14:49;;;;;;;6.93;6.00;;;11.60;99.90;;;;;;5009553;28;20655;-82
2022/04/22 09:17:16;;;;;;;11.23;7.03;;;11.80;99.90;;;;;;5009544;28;20334;-82
2022/04/22 09:19:44;;;;;;;8.00;6.60;;;12.00;99.90;;;;;;5027117;28;20191;-81
2022/04/22 09:22:10;;;;;;;8.00;6.82;;;12.00;99.90;;;;;;5009634;28;20595;-81
2022/04/22 09:24:50;;;;;;;8.85;7.88;;;12.30;99.90;;;;;;5010102;28;20190;-82
2022/04/22 09:27:17;;;;;;;10.68;8.50;;;12.60;99.90;;;;;;5026934;28;20262;-82
2022/04/22 09:29:55;;;;;;;11.88;8.45;;;12.60;99.90;;;;;;5026350;28;20191;-82
2022/04/22 09:32:35;;;;;;;10.55;8.52;;;12.20;99.90;;;;;;5026137;28;20206;-81
2022/04/22 09:35:29;;;;;;;13.05;10.25;;;12.10;99.90;;;;;;5008614;28;20870;-81
2022/04/22 09:43:49;;;;;;;14.27;11.48;;;11.90;99.90;;;;;;5026690;28;20695;-81
2022/04/22 09:46:30;;;;;;;12.20;10.40;;;11.60;99.90;;;;;;5024581;28;20179;-81
2022/04/22 09:48:56;;;;;;;14.30;10.30;;;11.60;99.90;;;;;;5007951;28;20182;-81
2022/04/22 09:51:27;;;;;;;14.10;11.07;;;11.70;99.90;;;;;;5007913;28;20272;-81
2022/04/22 09:54:00;;;;;;;11.32;10.13;;;11.80;99.90;;;;;;5026638;28;20234;-80
2022/04/22 09:56:26;;;;;;;13.93;10.23;;;11.80;99.90;;;;;;5010336;28;20867;-80
2022/04/22 09:58:51;;;;;;;13.38;11.07;;;11.90;99.90;;;;;;5029374;28;20217;-80
2022/04/22 10:01:17;;;;;;;12.82;10.73;;;12.00;99.90;;;;;;5029496;28;20676;-80
2022/04/22 10:03:43;;;;;;;14.23;10.27;;;12.30;99.90;;;;;;5011835;28;20190;-80
2022/04/22 10:06:09;;;;;;;12.35;10.48;;;12.10;99.90;;;;;;5010660;28;20693;-81
2022/04/22 10:08:36;;;;;;;15.43;11.23;;;12.00;99.90;;;;;;5009514;28;20187;-80
2022/04/22 10:11:03;;;;;;;12.13;10.35;;;11.80;99.90;;;;;;5012291;28;20349;-80
2022/04/22 10:13:41;;;;;;;16.08;12.73;;;11.70;99.90;;;;;;5011999;28;20206;-81
2022/04/22 10:16:11;;;;;;;13.77;11.77;;;11.60;99.90;;;;;;5013577;28;20684;-81
2022/04/22 10:18:38;;;;;;;13.68;12.00;;;11.70;99.90;;;;;;5013147;28;20179;-80
2022/04/22 10:21:03;;;;;;;14.10;12.73;;;12.00;99.90;;;;;;5028841;28;20210;-81
2022/04/22 10:23:30;;;;;;;14.50;11.63;;;12.20;99.90;;;;;;5030663;28;20354;-82
2022/04/22 10:26:02;;;;;;;16.65;14.90;;;12.10;99.90;;;;;;5011804;28;20198;-81
2022/04/22 10:28:29;;;;;;;20.48;18.60;;;12.20;99.90;;;;;;5031362;28;20183;-80
2022/04/22 10:31:00;;;;;;;15.07;12.63;;;12.30;99.90;;;;;;5030399;28;20222;-82
2022/04/22 10:33:27;;;;;;;13.18;11.63;;;12.50;99.90;;;;;;5030739;28;20190;-80
2022/04/22 10:36:02;;;;;;;11.43;9.70;;;12.60;99.90;;;;;;5031215;28;20493;-80
2022/04/22 10:38:38;;;;;;;12.48;10.95;;;12.90;99.90;;;;;;5012814;28;20179;-80
2022/04/22 10:41:12;;;;;;;12.55;10.90;;;12.80;99.90;;;;;;5029117;28;20262;-80
2022/04/22 10:43:39;;;;;;;12.93;10.60;;;12.90;99.90;;;;;;5013377;28;20185;-80
2022/04/22 10:49:13;;;;;;;16.77;14.93;;;12.60;99.90;;;;;;5030200;28;20185;-80
2022/04/22 10:52:03;;;;;;;16.10;14.45;;;12.80;99.90;;;;;;5012253;28;20212;-82
2022/04/22 10:55:06;;;;;;;11.00;9.90;;;13.10;99.90;;;;;;5030061;28;20819;-83
2022/04/22 10:57:33;;;;;;;15.18;13.38;;;13.30;99.90;;;;;;5012449;28;20183;-81
2022/04/22 11:00:11;;;;;;;11.45;9.55;;;13.30;99.90;;;;;;5030550;28;20539;-81
2022/04/22 11:02:43;;;;;;;39.90;27.67;;;13.10;99.90;;;;;;5012625;28;20179;-81
2022/04/22 11:05:20;;;;;;;11.88;10.23;;;12.80;99.90;;;;;;5029876;28;20221;-80
2022/04/22 11:07:53;;;;;;;22.48;16.33;;;12.70;99.90;;;;;;5011636;28;20183;-82
2022/04/22 11:10:23;;;;;;;15.70;12.20;;;13.10;99.90;;;;;;5011522;28;20213;-81
2022/04/22 11:12:57;;;;;;;25.88;18.30;;;13.10;99.90;;;;;;5028206;28;20186;-80
2022/04/22 11:15:41;;;;;;;26.73;17.58;;;13.40;99.90;;;;;;5012129;28;20203;-81
2022/04/22 11:18:08;;;;;;;13.10;10.95;;;13.60;99.90;;;;;;5012056;28;20247;-81
2022/04/22 11:20:37;;;;;;;77.18;36.65;;;13.80;99.90;;;;;;5030079;28;20627;-82
2022/04/22 11:23:05;;;;;;;50.45;24.73;;;13.50;99.90;;;;;;5028118;28;20225;-81
2022/04/22 11:25:31;;;;;;;30.83;17.42;;;13.80;99.90;;;;;;5011758;28;20252;-81
2022/04/22 11:27:58;;;;;;;24.17;16.15;;;14.30;99.90;;;;;;5011962;28;20832;-82
2022/04/22 11:30:26;;;;;;;25.38;16.25;;;14.50;99.90;;;;;;5028598;28;20199;-81
2022/04/22 11:33:19;;;;;;;107.95;76.13;;;15.20;99.90;;;;;;5028326;28;20183;-81
2022/04/22 11:35:49;;;;;;;20.08;18.05;;;15.60;99.90;;;;;;5027613;28;20199;-81
2022/04/22 11:38:15;;;;;;;11.60;9.20;;;15.70;99.90;;;;;;5010693;28;20864;-81
2022/04/22 11:40:43;;;;;;;11.75;10.10;;;15.50;99.90;;;;;;5009764;28;20512;-81
2022/04/22 11:43:16;;;;;;;11.25;10.05;;;15.30;99.90;;;;;;5027375;28;20191;-81
2022/04/22 11:45:43;;;;;;;10.55;8.93;;;15.00;99.90;;;;;;5010862;28;20195;-81
2022/04/22 11:48:10;;;;;;;11.77;10.10;;;14.90;99.90;;;;;;5027200;28;20312;-80
2022/04/22 11:50:45;;;;;;;16.33;14.40;;;15.00;99.90;;;;;;5026983;28;20221;-80
2022/04/22 11:53:18;;;;;;;10.45;9.30;;;15.00;99.90;;;;;;5014296;28;20193;-81
2022/04/22 11:55:46;;;;;;;13.40;12.00;;;15.00;99.90;;;;;;5030909;28;20228;-81
2022/04/22 11:58:14;;;;;;;13.77;10.63;;;15.10;99.90;;;;;;5014826;28;20545;-81
2022/04/22 12:06:21;;;;;;;10.02;9.00;;;14.60;99.90;;;;;;5032692;28;20189;-81
2022/04/22 12:09:02;;;;;;;9.73;8.07;;;14.80;99.90;;;;;;5015137;28;20233;-82
2022/04/22 12:11:29;;;;;;;8.85;7.95;;;14.70;99.90;;;;;;5014012;28;20244;-82
2022/04/22 12:13:55;;;;;;;9.23;8.23;;;14.70;99.90;;;;;;5013565;28;20744;-82
2022/04/22 12:16:27;;;;;;;10.52;8.95;;;14.90;99.90;;;;;;5031608;28;20183;-81
2022/04/22 12:18:54;;;;;;;10.43;7.85;;;15.40;99.90;;;;;;5031319;28;20179;-83
2022/04/22 12:21:21;;;;;;;8.13;6.70;;;15.80;99.90;;;;;;5014670;28;20311;-81
2022/04/22 12:23:49;;;;;;;8.10;7.30;;;15.90;99.90;;;;;;5014862;28;20187;-81
2022/04/22 12:26:21;;;;;;;7.70;6.90;;;15.90;99.90;;;;;;5014088;28;20232;-80
2022/04/22 12:28:56;;;;;;;8.93;7.10;;;15.80;99.90;;;;;;5013947;28;20189;-81
2022/04/22 12:31:22;;;;;;;8.02;7.13;;;15.80;99.90;;;;;;5030124;28;20206;-79
2022/04/22 12:33:58;;;;;;;7.05;6.35;;;15.60;99.90;;;;;;5030242;28;20230;-81
2022/04/22 12:36:23;;;;;;;12.20;9.95;;;15.40;99.90;;;;;;5011433;28;20264;-84
2022/04/22 12:38:49;;;;;;;6.13;5.53;;;15.40;99.90;;;;;;5011868;28;20187;-85
2022/04/22 12:41:18;;;;;;;9.20;5.90;;;15.20;99.90;;;;;;5011932;28;20217;-79
2022/04/22 12:43:59;;;;;;;6.53;5.70;;;14.80;99.90;;;;;;5029675;28;20190;-81
2022/04/22 12:52:08;;;;;;;8.52;6.70;;;14.50;99.90;;;;;;5028349;28;20248;-81
2022/04/22 12:52:12;;;;;;;7.28;5.82;;;14.40;99.90;;;;;;5027867;28;20748;-81
2022/04/22 12:54:39;;;;;;;6.32;4.82;;;14.40;99.90;;;;;;5011048;28;20264;-81
2022/04/22 12:57:05;;;;;;;5.88;5.05;;;14.50;99.90;;;;;;5027576;28;20194;-81
2022/04/22 12:59:46;;;;;;;6.22;5.20;;;14.60;99.90;;;;;;5028903;28;20229;-81
2022/04/22 13:02:14;;;;;;;6.57;4.82;;;14.80;99.90;;;;;;5027788;28;20719;-80
2022/04/22 13:04:58;;;;;;;7.10;5.10;;;14.80;99.90;;;;;;5010793;28;20183;-80
2022/04/22 13:07:24;;;;;;;5.85;4.47;;;14.80;99.90;;;;;;5009279;28;20230;-80
2022/04/22 13:09:50;;;;;;;5.28;4.65;;;14.80;99.90;;;;;;5028301;28;20190;-80
2022/04/22 13:12:16;;;;;;;5.20;4.70;;;14.80;99.90;;;;;;5027785;28;20187;-81
2022/04/22 13:14:42;;;;;;;5.32;4.43;;;15.00;99.90;;;;;;5010704;28;20218;-80
2022/04/22 13:17:21;;;;;;;5.30;4.80;;;15.20;99.90;;;;;;5026752;28;20229;-80
2022/04/22 13:19:47;;;;;;;4.60;4.15;;;15.20;99.90;;;;;;5008869;28;20213;-80
2022/04/22 13:22:12;;;;;;;5.25;4.38;;;15.20;99.90;;;;;;5016851;28;20546;-81
2022/04/22 13:24:40;;;;;;;7.07;5.07;;;15.30;99.90;;;;;;5018562;28;21082;-82
2022/04/22 13:27:07;;;;;;;40.08;24.90;;;14.90;99.90;;;;;;5028315;28;20649;-81
2022/04/22 13:29:32;;;;;;;9.13;6.88;;;14.80;99.90;;;;;;5038792;28;20195;-81
2022/04/22 13:31:58;;;;;;;33.15;22.08;;;15.00;99.90;;;;;;5025725;28;20217;-81
2022/04/22 13:34:23;;;;;;;17.27;12.30;;;15.20;99.90;;;;;;5020732;28;20233;-81
2022/04/22 13:36:49;;;;;;;12.45;10.32;;;15.40;99.90;;;;;;5023478;28;20919;-81
2022/04/22 13:39:14;;;;;;;11.63;10.50;;;15.60;99.90;;;;;;5042067;28;20186;-81
2022/04/22 13:41:40;;;;;;;5.22;4.65;;;15.80;99.90;;;;;;5018358;28;20701;-81
2022/04/22 13:44:06;;;;;;;5.03;4.53;;;15.60;99.90;;;;;;5014610;28;20500;-82
2022/04/22 13:54:44;;;;;;;4.63;4.13;;;15.00;99.90;;;;;;5029799;28;20217;-84
2022/04/22 13:57:09;;;;;;;6.60;5.38;;;15.00;99.90;;;;;;5027357;28;20186;-83